sensor_id;sensor_type;location;lat;lon;timestamp;temperature;humidity
39779;DHT22;25454;49.878;8.618;2023-02-01T00:02:25;6.00;99.90
39779;DHT22;25454;49.878;8.618;2023-02-01T00:07:25;6.00;99.90
39779;DHT22;25454;49.878;8.618;2023-02-01T00:12:26;6.00;99.90
39779;DHT22;25454;49.878;8.618;2023-02-01T00:17:27;6.00;99.90
39779;DHT22;25454;49.878;8.618;2023-02-01T00:22:27;6.00;99.90
39779;DHT22;25454;49.878;8.618;2023-02-01T00:27:28;6.00;99.90
39779;DHT22;25454;49.878;8.618;2023-02-01T00:32:28;6.00;99.90
39779;DHT22;25454;49.878;8.618;2023-02-01T00:37:29;6.00;99.90
39779;DHT22;25454;49.878;8.618;2023-02-01T00:42:30;6.00;99.90
39779;DHT22;25454;49.878;8.618;2023-02-01T00:47:31;5.90;99.90
39779;DHT22;25454;49.878;8.618;2023-02-01T00:52:32;5.90;99.90
39779;DHT22;25454;49.878;8.618;2023-02-01T00:57:33;5.90;99.90
39779;DHT22;25454;49.878;8.618;2023-02-01T01:02:33;5.90;99.90
39779;DHT22;25454;49.878;8.618;2023-02-01T01:07:34;5.80;99.90
39779;DHT22;25454;49.878;8.618;2023-02-01T01:12:34;5.80;99.90
39779;DHT22;25454;49.878;8.618;2023-02-01T01:17:35;5.80;99.90
39779;DHT22;25454;49.878;8.618;2023-02-01T01:22:35;5.90;99.90
39779;DHT22;25454;49.878;8.618;2023-02-01T01:27:36;5.90;99.90
39779;DHT22;25454;49.878;8.618;2023-02-01T01:32:36;6.00;99.90
39779;DHT22;25454;49.878;8.618;2023-02-01T01:37:40;6.10;99.90
39779;DHT22;25454;49.878;8.618;2023-02-01T01:42:42;6.10;99.90
39779;DHT22;25454;49.878;8.618;2023-02-01T01:47:48;6.20;99.90
39779;DHT22;25454;49.878;8.618;2023-02-01T01:52:54;6.10;99.90
39779;DHT22;25454;49.878;8.618;2023-02-01T01:58:08;6.00;99.90
39779;DHT22;25454;49.878;8.618;2023-02-01T02:03:21;6.00;99.90
39779;DHT22;25454;49.878;8.618;2023-02-01T02:08:24;6.00;99.90
39779;DHT22;25454;49.878;8.618;2023-02-01T02:13:32;6.00;99.90
39779;DHT22;25454;49.878;8.618;2023-02-01T02:30:16;6.00;99.90
39779;DHT22;25454;49.878;8.618;2023-02-01T02:35:41;6.00;99.90
39779;DHT22;25454;49.878;8.618;2023-02-01T02:46:38;6.00;99.90
39779;DHT22;25454;49.878;8.618;2023-02-01T02:52:12;6.00;99.90
39779;DHT22;25454;49.878;8.618;2023-02-01T02:57:37;6.10;99.90
39779;DHT22;25454;49.878;8.618;2023-02-01T03:02:57;6.00;99.90
39779;DHT22;25454;49.878;8.618;2023-02-01T03:08:22;6.00;99.90
39779;DHT22;25454;49.878;8.618;2023-02-01T03:13:43;6.00;99.90
39779;DHT22;25454;49.878;8.618;2023-02-01T03:18:48;6.00;99.90
39779;DHT22;25454;49.878;8.618;2023-02-01T03:23:51;5.90;99.90
39779;DHT22;25454;49.878;8.618;2023-02-01T03:29:05;6.00;99.90
39779;DHT22;25454;49.878;8.618;2023-02-01T03:34:08;6.00;99.90
39779;DHT22;25454;49.878;8.618;2023-02-01T03:39:34;6.00;99.90
39779;DHT22;25454;49.878;8.618;2023-02-01T03:44:39;6.00;99.90
39779;DHT22;25454;49.878;8.618;2023-02-01T03:49:45;6.00;99.90
39779;DHT22;25454;49.878;8.618;2023-02-01T03:54:47;6.00;99.90
39779;DHT22;25454;49.878;8.618;2023-02-01T03:59:49;6.00;99.90
39779;DHT22;25454;49.878;8.618;2023-02-01T04:04:50;6.00;99.90
39779;DHT22;25454;49.878;8.618;2023-02-01T04:09:50;5.90;99.90
39779;DHT22;25454;49.878;8.618;2023-02-01T04:14:51;5.90;99.90
39779;DHT22;25454;49.878;8.618;2023-02-01T04:19:51;5.90;99.90
39779;DHT22;25454;49.878;8.618;2023-02-01T04:24:52;5.90;99.90
39779;DHT22;25454;49.878;8.618;2023-02-01T04:29:55;6.00;99.90
39779;DHT22;25454;49.878;8.618;2023-02-01T04:34:56;5.90;99.90
39779;DHT22;25454;49.878;8.618;2023-02-01T04:39:56;5.90;99.90
39779;DHT22;25454;49.878;8.618;2023-02-01T04:44:57;5.90;99.90
39779;DHT22;25454;49.878;8.618;2023-02-01T04:49:57;5.90;99.90
39779;DHT22;25454;49.878;8.618;2023-02-01T04:54:58;6.00;99.90
39779;DHT22;25454;49.878;8.618;2023-02-01T05:00:00;6.00;99.90
39779;DHT22;25454;49.878;8.618;2023-02-01T05:05:01;6.00;99.90
39779;DHT22;25454;49.878;8.618;2023-02-01T05:10:01;6.00;99.90
39779;DHT22;25454;49.878;8.618;2023-02-01T05:15:02;6.00;99.90
39779;DHT22;25454;49.878;8.618;2023-02-01T05:20:03;6.00;99.90
39779;DHT22;25454;49.878;8.618;2023-02-01T05:25:04;5.90;99.90
39779;DHT22;25454;49.878;8.618;2023-02-01T05:30:06;5.90;99.90
39779;DHT22;25454;49.878;8.618;2023-02-01T05:35:07;5.90;99.90
39779;DHT22;25454;49.878;8.618;2023-02-01T05:40:08;5.90;99.90
39779;DHT22;25454;49.878;8.618;2023-02-01T05:45:09;5.90;99.90
39779;DHT22;25454;49.878;8.618;2023-02-01T05:50:10;5.90;99.90
39779;DHT22;25454;49.878;8.618;2023-02-01T05:55:11;5.90;99.90
39779;DHT22;25454;49.878;8.618;2023-02-01T06:00:13;5.90;99.90
39779;DHT22;25454;49.878;8.618;2023-02-01T06:05:13;5.90;99.90
39779;DHT22;25454;49.878;8.618;2023-02-01T06:10:14;6.00;99.90
39779;DHT22;25454;49.878;8.618;2023-02-01T06:15:15;6.00;99.90
39779;DHT22;25454;49.878;8.618;2023-02-01T06:20:16;6.00;99.90
39779;DHT22;25454;49.878;8.618;2023-02-01T06:25:18;6.00;99.90
39779;DHT22;25454;49.878;8.618;2023-02-01T06:30:19;6.00;99.90
39779;DHT22;25454;49.878;8.618;2023-02-01T06:35:20;6.00;99.90
39779;DHT22;25454;49.878;8.618;2023-02-01T06:40:21;6.00;99.90
39779;DHT22;25454;49.878;8.618;2023-02-01T06:45:21;6.00;99.90
39779;DHT22;25454;49.878;8.618;2023-02-01T06:50:22;6.00;99.90
39779;DHT22;25454;49.878;8.618;2023-02-01T06:55:23;5.90;99.90
39779;DHT22;25454;49.878;8.618;2023-02-01T07:00:24;5.80;99.90
39779;DHT22;25454;49.878;8.618;2023-02-01T07:05:25;5.70;99.90
39779;DHT22;25454;49.878;8.618;2023-02-01T07:10:25;5.50;99.90
39779;DHT22;25454;49.878;8.618;2023-02-01T07:15:26;5.40;99.90
39779;DHT22;25454;49.878;8.618;2023-02-01T07:20:26;5.30;99.90
39779;DHT22;25454;49.878;8.618;2023-02-01T07:25:27;5.30;99.90
39779;DHT22;25454;49.878;8.618;2023-02-01T07:30:27;5.30;99.90
39779;DHT22;25454;49.878;8.618;2023-02-01T07:35:29;5.30;99.90
39779;DHT22;25454;49.878;8.618;2023-02-01T07:40:29;5.30;99.90
39779;DHT22;25454;49.878;8.618;2023-02-01T07:45:30;5.40;99.90
39779;DHT22;25454;49.878;8.618;2023-02-01T07:50:31;5.50;99.90
39779;DHT22;25454;49.878;8.618;2023-02-01T07:55:31;5.70;99.90
39779;DHT22;25454;49.878;8.618;2023-02-01T08:00:32;6.00;99.90
39779;DHT22;25454;49.878;8.618;2023-02-01T08:05:55;6.30;99.90
39779;DHT22;25454;49.878;8.618;2023-02-01T08:11:02;6.60;99.90
39779;DHT22;25454;49.878;8.618;2023-02-01T08:16:06;6.80;99.90
39779;DHT22;25454;49.878;8.618;2023-02-01T08:21:12;7.00;99.90
39779;DHT22;25454;49.878;8.618;2023-02-01T08:26:23;7.30;99.90
39779;DHT22;25454;49.878;8.618;2023-02-01T08:31:26;9.40;99.90
39779;DHT22;25454;49.878;8.618;2023-02-01T08:36:28;10.40;99.90
39779;DHT22;25454;49.878;8.618;2023-02-01T08:41:29;11.30;99.90
39779;DHT22;25454;49.878;8.618;2023-02-01T08:46:30;11.50;99.90
39779;DHT22;25454;49.878;8.618;2023-02-01T08:51:31;11.70;99.90
39779;DHT22;25454;49.878;8.618;2023-02-01T08:56:31;11.50;99.90
39779;DHT22;25454;49.878;8.618;2023-02-01T09:01:32;11.90;99.90
39779;DHT22;25454;49.878;8.618;2023-02-01T09:06:32;12.20;99.90
39779;DHT22;25454;49.878;8.618;2023-02-01T09:11:33;12.30;99.90
39779;DHT22;25454;49.878;8.618;2023-02-01T09:16:33;13.70;99.90
39779;DHT22;25454;49.878;8.618;2023-02-01T09:21:34;15.20;99.90
39779;DHT22;25454;49.878;8.618;2023-02-01T09:26:36;16.10;99.90
39779;DHT22;25454;49.878;8.618;2023-02-01T09:31:37;16.60;98.80
39779;DHT22;25454;49.878;8.618;2023-02-01T09:36:38;14.70;99.90
39779;DHT22;25454;49.878;8.618;2023-02-01T09:47:02;10.60;99.90
39779;DHT22;25454;49.878;8.618;2023-02-01T09:52:06;9.40;99.90
39779;DHT22;25454;49.878;8.618;2023-02-01T09:57:19;8.80;99.90
39779;DHT22;25454;49.878;8.618;2023-02-01T10:02:25;8.50;99.90
39779;DHT22;25454;49.878;8.618;2023-02-01T10:07:38;8.40;99.90
39779;DHT22;25454;49.878;8.618;2023-02-01T10:28:16;8.30;99.90
39779;DHT22;25454;49.878;8.618;2023-02-01T10:38:28;8.60;99.90
39779;DHT22;25454;49.878;8.618;2023-02-01T10:43:30;8.70;99.90
39779;DHT22;25454;49.878;8.618;2023-02-01T10:48:34;8.60;99.90
39779;DHT22;25454;49.878;8.618;2023-02-01T10:53:49;8.50;99.90
39779;DHT22;25454;49.878;8.618;2023-02-01T10:58:50;8.30;99.90
39779;DHT22;25454;49.878;8.618;2023-02-01T11:04:00;8.20;99.90
39779;DHT22;25454;49.878;8.618;2023-02-01T11:14:15;8.20;99.90
39779;DHT22;25454;49.878;8.618;2023-02-01T11:19:17;8.20;99.90
39779;DHT22;25454;49.878;8.618;2023-02-01T11:24:28;8.20;99.90
39779;DHT22;25454;49.878;8.618;2023-02-01T11:29:37;8.20;99.90
39779;DHT22;25454;49.878;8.618;2023-02-01T11:39:56;8.10;99.90
39779;DHT22;25454;49.878;8.618;2023-02-01T11:45:19;8.10;99.90
39779;DHT22;25454;49.878;8.618;2023-02-01T11:50:42;8.10;99.90
39779;DHT22;25454;49.878;8.618;2023-02-01T12:06:47;8.10;99.90
39779;DHT22;25454;49.878;8.618;2023-02-01T12:28:02;8.10;99.90
39779;DHT22;25454;49.878;8.618;2023-02-01T12:33:31;8.10;99.90
39779;DHT22;25454;49.878;8.618;2023-02-01T12:44:11;8.20;99.90
39779;DHT22;25454;49.878;8.618;2023-02-01T12:49:24;8.10;99.90
39779;DHT22;25454;49.878;8.618;2023-02-01T13:00:01;8.20;99.90
39779;DHT22;25454;49.878;8.618;2023-02-01T13:05:18;8.20;99.90
39779;DHT22;25454;49.878;8.618;2023-02-01T13:10:45;8.20;99.90
39779;DHT22;25454;49.878;8.618;2023-02-01T13:16:12;8.20;99.90
39779;DHT22;25454;49.878;8.618;2023-02-01T13:21:31;8.20;99.90
39779;DHT22;25454;49.878;8.618;2023-02-01T13:26:32;8.30;99.90
39779;DHT22;25454;49.878;8.618;2023-02-01T13:32:12;8.30;99.90
39779;DHT22;25454;49.878;8.618;2023-02-01T13:37:43;8.20;99.90
39779;DHT22;25454;49.878;8.618;2023-02-01T13:47:52;8.10;99.90
39779;DHT22;25454;49.878;8.618;2023-02-01T13:52:59;8.00;99.90
39779;DHT22;25454;49.878;8.618;2023-02-01T14:03:11;8.10;99.90
39779;DHT22;25454;49.878;8.618;2023-02-01T14:08:41;8.20;99.90
39779;DHT22;25454;49.878;8.618;2023-02-01T14:13:42;8.30;99.90
39779;DHT22;25454;49.878;8.618;2023-02-01T14:23:48;8.40;99.90
39779;DHT22;25454;49.878;8.618;2023-02-01T14:39:33;8.20;99.90
39779;DHT22;25454;49.878;8.618;2023-02-01T14:44:36;8.20;99.90
39779;DHT22;25454;49.878;8.618;2023-02-01T14:55:59;8.20;99.90
39779;DHT22;25454;49.878;8.618;2023-02-01T15:00:35;8.20;99.90
39779;DHT22;25454;49.878;8.618;2023-02-01T15:05:35;8.20;99.90
39779;DHT22;25454;49.878;8.618;2023-02-01T15:10:42;8.20;99.90
39779;DHT22;25454;49.878;8.618;2023-02-01T15:15:44;8.10;99.90
39779;DHT22;25454;49.878;8.618;2023-02-01T15:20:56;8.10;99.90
39779;DHT22;25454;49.878;8.618;2023-02-01T15:25:57;8.10;99.90
39779;DHT22;25454;49.878;8.618;2023-02-01T15:31:04;8.10;99.90
39779;DHT22;25454;49.878;8.618;2023-02-01T15:36:10;8.10;99.90
39779;DHT22;25454;49.878;8.618;2023-02-01T15:41:18;8.10;99.90
39779;DHT22;25454;49.878;8.618;2023-02-01T15:46:44;8.10;99.90
39779;DHT22;25454;49.878;8.618;2023-02-01T15:51:47;8.10;99.90
39779;DHT22;25454;49.878;8.618;2023-02-01T15:56:53;8.00;99.90
39779;DHT22;25454;49.878;8.618;2023-02-01T16:01:54;8.00;99.90
39779;DHT22;25454;49.878;8.618;2023-02-01T16:06:59;7.90;99.90
39779;DHT22;25454;49.878;8.618;2023-02-01T16:17:26;7.90;99.90
39779;DHT22;25454;49.878;8.618;2023-02-01T16:22:27;7.90;99.90
39779;DHT22;25454;49.878;8.618;2023-02-01T16:27:27;7.80;99.90
39779;DHT22;25454;49.878;8.618;2023-02-01T16:32:28;7.80;99.90
39779;DHT22;25454;49.878;8.618;2023-02-01T16:37:30;7.80;99.90
39779;DHT22;25454;49.878;8.618;2023-02-01T16:42:32;7.80;99.90
39779;DHT22;25454;49.878;8.618;2023-02-01T16:47:33;7.70;99.90
39779;DHT22;25454;49.878;8.618;2023-02-01T16:52:35;7.70;99.90
39779;DHT22;25454;49.878;8.618;2023-02-01T16:57:36;7.70;99.90
39779;DHT22;25454;49.878;8.618;2023-02-01T17:02:36;7.70;99.90
39779;DHT22;25454;49.878;8.618;2023-02-01T17:07:38;7.70;99.90
39779;DHT22;25454;49.878;8.618;2023-02-01T17:12:40;7.70;99.90
39779;DHT22;25454;49.878;8.618;2023-02-01T17:17:41;7.60;99.90
39779;DHT22;25454;49.878;8.618;2023-02-01T17:22:42;7.60;99.90
39779;DHT22;25454;49.878;8.618;2023-02-01T17:27:43;7.60;99.90
39779;DHT22;25454;49.878;8.618;2023-02-01T17:32:47;7.50;99.90
39779;DHT22;25454;49.878;8.618;2023-02-01T17:37:48;7.50;99.90
39779;DHT22;25454;49.878;8.618;2023-02-01T17:42:49;7.40;99.90
39779;DHT22;25454;49.878;8.618;2023-02-01T17:47:51;7.40;99.90
39779;DHT22;25454;49.878;8.618;2023-02-01T17:52:51;7.30;99.90
39779;DHT22;25454;49.878;8.618;2023-02-01T17:57:52;7.30;99.90
39779;DHT22;25454;49.878;8.618;2023-02-01T18:02:53;7.30;99.90
39779;DHT22;25454;49.878;8.618;2023-02-01T18:07:53;7.30;99.90
39779;DHT22;25454;49.878;8.618;2023-02-01T18:12:54;7.30;99.90
39779;DHT22;25454;49.878;8.618;2023-02-01T18:17:55;7.20;99.90
39779;DHT22;25454;49.878;8.618;2023-02-01T18:22:55;7.30;99.90
39779;DHT22;25454;49.878;8.618;2023-02-01T18:27:56;7.20;99.90
39779;DHT22;25454;49.878;8.618;2023-02-01T18:32:57;7.10;99.90
39779;DHT22;25454;49.878;8.618;2023-02-01T18:37:58;7.10;99.90
39779;DHT22;25454;49.878;8.618;2023-02-01T18:42:59;7.10;99.90
39779;DHT22;25454;49.878;8.618;2023-02-01T18:48:01;7.10;99.90
39779;DHT22;25454;49.878;8.618;2023-02-01T18:53:05;7.10;99.90
39779;DHT22;25454;49.878;8.618;2023-02-01T18:58:06;7.20;99.90
39779;DHT22;25454;49.878;8.618;2023-02-01T19:03:08;7.10;99.90
39779;DHT22;25454;49.878;8.618;2023-02-01T19:08:09;7.20;99.90
39779;DHT22;25454;49.878;8.618;2023-02-01T19:13:11;7.10;99.90
39779;DHT22;25454;49.878;8.618;2023-02-01T19:18:14;7.10;99.90
39779;DHT22;25454;49.878;8.618;2023-02-01T19:23:20;7.10;99.90
39779;DHT22;25454;49.878;8.618;2023-02-01T19:28:20;7.20;99.90
39779;DHT22;25454;49.878;8.618;2023-02-01T19:33:21;7.20;99.90
39779;DHT22;25454;49.878;8.618;2023-02-01T19:38:21;7.20;99.90
39779;DHT22;25454;49.878;8.618;2023-02-01T19:43:22;7.20;99.90
39779;DHT22;25454;49.878;8.618;2023-02-01T19:48:23;7.20;99.90
39779;DHT22;25454;49.878;8.618;2023-02-01T19:53:24;7.20;99.90
39779;DHT22;25454;49.878;8.618;2023-02-01T19:58:27;7.20;99.90
39779;DHT22;25454;49.878;8.618;2023-02-01T20:03:28;7.30;99.90
39779;DHT22;25454;49.878;8.618;2023-02-01T20:08:29;7.30;99.90
39779;DHT22;25454;49.878;8.618;2023-02-01T20:13:29;7.30;99.90
39779;DHT22;25454;49.878;8.618;2023-02-01T20:18:30;7.30;99.90
39779;DHT22;25454;49.878;8.618;2023-02-01T20:23:31;7.30;99.90
39779;DHT22;25454;49.878;8.618;2023-02-01T20:28:32;7.30;99.90
39779;DHT22;25454;49.878;8.618;2023-02-01T20:33:33;7.30;99.90
39779;DHT22;25454;49.878;8.618;2023-02-01T20:38:34;7.30;99.90
39779;DHT22;25454;49.878;8.618;2023-02-01T20:43:34;7.30;99.90
39779;DHT22;25454;49.878;8.618;2023-02-01T20:48:36;7.40;99.90
39779;DHT22;25454;49.878;8.618;2023-02-01T20:53:37;7.40;99.90
39779;DHT22;25454;49.878;8.618;2023-02-01T20:58:38;7.40;99.90
39779;DHT22;25454;49.878;8.618;2023-02-01T21:03:39;7.40;99.90
39779;DHT22;25454;49.878;8.618;2023-02-01T21:08:39;7.40;99.90
39779;DHT22;25454;49.878;8.618;2023-02-01T21:13:42;7.40;99.90
39779;DHT22;25454;49.878;8.618;2023-02-01T21:18:51;7.40;99.90
39779;DHT22;25454;49.878;8.618;2023-02-01T21:23:55;7.40;99.90
39779;DHT22;25454;49.878;8.618;2023-02-01T21:28:55;7.40;99.90
39779;DHT22;25454;49.878;8.618;2023-02-01T21:33:56;7.40;99.90
39779;DHT22;25454;49.878;8.618;2023-02-01T21:38:56;7.40;99.90
39779;DHT22;25454;49.878;8.618;2023-02-01T21:44:03;7.40;99.90
39779;DHT22;25454;49.878;8.618;2023-02-01T21:49:03;7.40;99.90
39779;DHT22;25454;49.878;8.618;2023-02-01T21:54:05;7.40;99.90
39779;DHT22;25454;49.878;8.618;2023-02-01T21:59:06;7.40;99.90
39779;DHT22;25454;49.878;8.618;2023-02-01T22:04:09;7.40;99.90
39779;DHT22;25454;49.878;8.618;2023-02-01T22:09:18;7.40;99.90
39779;DHT22;25454;49.878;8.618;2023-02-01T22:14:20;7.50;99.90
39779;DHT22;25454;49.878;8.618;2023-02-01T22:19:21;7.50;99.90
39779;DHT22;25454;49.878;8.618;2023-02-01T22:24:22;7.50;99.90
39779;DHT22;25454;49.878;8.618;2023-02-01T22:29:22;7.50;99.90
39779;DHT22;25454;49.878;8.618;2023-02-01T22:34:23;7.50;99.90
39779;DHT22;25454;49.878;8.618;2023-02-01T22:39:26;7.50;99.90
39779;DHT22;25454;49.878;8.618;2023-02-01T22:44:27;7.50;99.90
39779;DHT22;25454;49.878;8.618;2023-02-01T22:49:28;7.50;99.90
39779;DHT22;25454;49.878;8.618;2023-02-01T22:54:28;7.50;99.90
39779;DHT22;25454;49.878;8.618;2023-02-01T22:59:29;7.60;99.90
39779;DHT22;25454;49.878;8.618;2023-02-01T23:04:29;7.60;99.90
39779;DHT22;25454;49.878;8.618;2023-02-01T23:09:30;7.60;99.90
39779;DHT22;25454;49.878;8.618;2023-02-01T23:14:31;7.60;99.90
39779;DHT22;25454;49.878;8.618;2023-02-01T23:19:31;7.60;99.90
39779;DHT22;25454;49.878;8.618;2023-02-01T23:24:32;7.50;99.90
39779;DHT22;25454;49.878;8.618;2023-02-01T23:29:32;7.50;99.90
39779;DHT22;25454;49.878;8.618;2023-02-01T23:34:33;7.50;99.90
39779;DHT22;25454;49.878;8.618;2023-02-01T23:39:33;7.50;99.90
39779;DHT22;25454;49.878;8.618;2023-02-01T23:44:34;7.50;99.90
39779;DHT22;25454;49.878;8.618;2023-02-01T23:49:35;7.50;99.90
39779;DHT22;25454;49.878;8.618;2023-02-01T23:54:36;7.50;99.90
39779;DHT22;25454;49.878;8.618;2023-02-01T23:59:36;7.50;99.90
